createdAt,value
2019-01-03T00:02:18.987Z,6.25
2019-01-03T00:05:04.680Z,4.33
2019-01-03T00:13:31.663Z,5.53
2019-01-03T00:16:17.314Z,7.42
2019-01-03T00:19:04.154Z,5.42
2019-01-03T00:21:49.908Z,7.22
2019-01-03T00:24:35.564Z,7.58
2019-01-03T00:27:21.240Z,4.70
2019-01-03T00:30:06.874Z,6.22
2019-01-03T00:32:52.553Z,5.42
2019-01-03T00:35:38.208Z,7.72
2019-01-03T00:38:23.860Z,6.83
2019-01-03T00:41:09.540Z,4.30
2019-01-03T00:43:55.181Z,6.30
2019-01-03T00:49:14.565Z,5.60
2019-01-03T00:52:00.221Z,4.87
2019-01-03T00:54:46.035Z,7.30
2019-01-03T00:57:31.686Z,6.05
2019-01-03T01:00:17.323Z,4.60
2019-01-03T01:08:25.195Z,4.65
2019-01-03T01:11:11.056Z,5.00
2019-01-03T01:16:34.974Z,5.25
2019-01-03T01:19:20.641Z,5.60
2019-01-03T01:22:06.323Z,6.55
2019-01-03T01:24:51.964Z,5.62
2019-01-03T01:27:37.609Z,6.35
2019-01-03T01:33:30.573Z,6.60
2019-01-03T01:39:03.511Z,4.70
2019-01-03T01:41:49.159Z,7.00
2019-01-03T01:44:34.815Z,7.33
2019-01-03T01:50:07.764Z,4.78
2019-01-03T01:52:53.402Z,4.55
2019-01-03T01:55:39.185Z,6.45
2019-01-03T01:58:24.773Z,4.78
2019-01-03T02:03:44.329Z,5.92
2019-01-03T02:06:29.989Z,6.90
2019-01-03T02:09:15.660Z,3.72
2019-01-03T02:12:01.303Z,4.92
2019-01-03T02:14:46.950Z,6.35
2019-01-03T02:17:32.619Z,7.17
2019-01-03T02:20:18.268Z,7.10
2019-01-03T02:23:03.964Z,7.65
2019-01-03T02:25:49.605Z,4.28
2019-01-03T02:28:35.247Z,6.15
2019-01-03T02:31:20.895Z,8.03
2019-01-03T02:34:06.534Z,7.22
2019-01-03T02:36:52.191Z,5.08
2019-01-03T02:47:41.189Z,7.03
2019-01-03T02:50:26.848Z,5.47
2019-01-03T02:53:12.484Z,6.40
2019-01-03T03:01:30.654Z,9.38
2019-01-03T03:04:16.375Z,6.67
2019-01-03T03:07:02.731Z,6.97
2019-01-03T03:09:48.390Z,6.70
2019-01-03T03:12:34.055Z,3.87
2019-01-03T03:15:19.686Z,5.08
2019-01-03T03:23:17.047Z,4.70
2019-01-03T03:28:50.013Z,5.92
2019-01-03T03:34:09.552Z,7.70
2019-01-03T03:36:55.213Z,5.67
2019-01-03T03:39:40.850Z,6.08
2019-01-03T03:45:00.296Z,6.03
2019-01-03T03:47:45.956Z,6.78
2019-01-03T03:50:31.587Z,4.20
2019-01-03T03:53:17.244Z,6.37
2019-01-03T03:56:02.894Z,4.92
2019-01-03T03:58:48.548Z,6.15
2019-01-03T04:01:34.189Z,9.30
2019-01-03T04:04:19.839Z,4.80
2019-01-03T04:07:05.499Z,4.92
2019-01-03T04:09:51.170Z,4.70
2019-01-03T04:12:36.838Z,5.33
2019-01-03T04:21:23.134Z,5.83
2019-01-03T04:24:08.786Z,4.30
2019-01-03T04:29:41.756Z,4.87
2019-01-03T04:32:27.417Z,8.50
2019-01-03T04:38:20.254Z,7.47
2019-01-03T04:41:05.891Z,8.90
2019-01-03T04:49:03.180Z,5.72
2019-01-03T04:51:48.815Z,4.28
2019-01-03T04:54:34.480Z,5.15
2019-01-03T05:00:47.220Z,4.70
2019-01-03T05:06:20.152Z,6.50
2019-01-03T05:09:05.857Z,4.33
2019-01-03T05:11:51.485Z,6.15
2019-01-03T05:14:37.151Z,5.55
2019-01-03T05:17:22.783Z,7.65
2019-01-03T05:22:42.352Z,5.53
2019-01-03T05:25:28.006Z,7.65
2019-01-03T05:33:34.504Z,12.45
2019-01-03T05:36:20.170Z,5.62
2019-01-03T05:39:05.814Z,7.62
2019-01-03T05:41:51.467Z,9.88
2019-01-03T05:44:37.111Z,11.18
2019-01-03T05:47:22.759Z,6.08
2019-01-03T05:52:55.738Z,7.78
2019-01-03T05:55:41.389Z,10.30
2019-01-03T05:58:27.042Z,7.22
2019-01-03T06:01:12.700Z,8.18
2019-01-03T06:03:58.348Z,7.03
2019-01-03T06:09:44.025Z,14.10
2019-01-03T06:15:03.716Z,8.33
2019-01-03T06:17:49.412Z,7.37
2019-01-03T06:20:35.107Z,8.25
2019-01-03T06:25:54.384Z,9.48
2019-01-03T06:28:40.035Z,6.90
2019-01-03T06:31:25.688Z,9.65
2019-01-03T06:34:11.348Z,10.88
2019-01-03T06:36:57.011Z,10.78
2019-01-03T06:39:42.683Z,13.20
2019-01-03T06:42:28.314Z,15.10
2019-01-03T06:45:13.963Z,15.50
2019-01-03T06:47:59.631Z,21.60
2019-01-03T06:50:45.271Z,15.43
2019-01-03T06:53:30.933Z,18.73
2019-01-03T06:56:16.600Z,20.30
2019-01-03T06:59:02.288Z,15.38
2019-01-03T07:01:47.906Z,16.77
2019-01-03T07:07:12.591Z,23.75
2019-01-03T07:09:58.269Z,21.33
2019-01-03T07:12:43.919Z,22.22
2019-01-03T07:15:29.593Z,27.13
2019-01-03T07:18:15.250Z,25.23
2019-01-03T07:21:00.888Z,18.87
2019-01-03T07:26:24.566Z,19.92
2019-01-03T07:29:10.220Z,14.15
2019-01-03T07:31:55.870Z,17.90
2019-01-03T07:34:41.527Z,19.40
2019-01-03T07:37:27.167Z,19.25
2019-01-03T07:40:12.830Z,24.00
2019-01-03T07:42:58.466Z,12.15
2019-01-03T07:45:44.129Z,20.43
2019-01-03T07:48:29.811Z,10.10
2019-01-03T07:51:15.471Z,16.73
2019-01-03T07:54:01.147Z,15.13
2019-01-03T07:56:46.836Z,10.63
2019-01-03T07:59:32.447Z,9.18
2019-01-03T08:07:43.476Z,14.47
2019-01-03T08:10:29.135Z,15.30
2019-01-03T08:13:14.784Z,13.48
2019-01-03T08:16:00.443Z,17.05
2019-01-03T08:18:46.098Z,15.20
2019-01-03T08:21:31.746Z,11.40
2019-01-03T08:24:17.392Z,11.73
2019-01-03T08:27:03.049Z,8.58
2019-01-03T08:29:48.697Z,14.63
2019-01-03T08:32:34.354Z,13.38
2019-01-03T08:43:05.823Z,14.07
2019-01-03T08:48:38.774Z,17.05
2019-01-03T08:51:24.475Z,13.43
2019-01-03T08:54:10.105Z,13.65
2019-01-03T08:56:55.760Z,12.73
2019-01-03T08:59:41.403Z,14.55
2019-01-03T09:02:27.044Z,12.53
2019-01-03T09:05:12.697Z,11.38
2019-01-03T09:07:58.346Z,13.65
2019-01-03T09:10:44.003Z,14.53
2019-01-03T09:16:03.602Z,14.87
2019-01-03T09:21:22.644Z,17.55
2019-01-03T09:32:07.547Z,11.80
2019-01-03T09:34:53.188Z,11.20
2019-01-03T09:37:38.847Z,12.82
2019-01-03T09:40:24.488Z,10.15
2019-01-03T09:43:10.151Z,9.50
2019-01-03T09:45:43.949Z,12.45
2019-01-03T09:48:03.566Z,11.45
2019-01-03T09:50:29.317Z,10.40
2019-01-03T09:52:55.093Z,12.00
2019-01-03T09:55:20.840Z,9.87
2019-01-03T09:57:46.614Z,12.00
2019-01-03T10:00:12.366Z,10.03
2019-01-03T10:02:38.166Z,11.90
2019-01-03T10:05:45.614Z,7.27
2019-01-03T10:08:11.371Z,10.58
2019-01-03T10:10:37.134Z,12.33
2019-01-03T10:13:02.896Z,10.13
2019-01-03T10:15:28.650Z,12.57
2019-01-03T10:17:54.431Z,14.23
2019-01-03T10:20:20.184Z,13.00
2019-01-03T10:22:45.939Z,8.17
2019-01-03T10:25:11.714Z,10.93
2019-01-03T10:27:37.466Z,9.53
2019-01-03T10:30:44.898Z,14.03
2019-01-03T10:33:10.653Z,12.03
2019-01-03T10:36:24.151Z,10.67
2019-01-03T10:38:45.789Z,10.53
2019-01-03T10:41:11.672Z,12.40
2019-01-03T10:43:37.426Z,11.37
2019-01-03T10:46:03.180Z,8.03
2019-01-03T10:48:28.934Z,11.80
2019-01-03T10:50:54.725Z,9.17
2019-01-03T10:53:20.479Z,9.33
2019-01-03T10:55:46.252Z,9.07
2019-01-03T10:58:12.024Z,9.13
2019-01-03T11:03:16.046Z,8.33
2019-01-03T11:08:55.810Z,10.43
2019-01-03T11:14:48.809Z,5.65
2019-01-03T11:17:14.560Z,11.45
2019-01-03T11:19:40.329Z,7.60
2019-01-03T11:22:06.100Z,7.80
2019-01-03T11:24:31.868Z,10.87
2019-01-03T11:26:57.621Z,16.73
2019-01-03T11:29:23.377Z,15.27
2019-01-03T11:31:49.163Z,21.60
2019-01-03T11:34:14.913Z,15.87
2019-01-03T11:36:40.676Z,14.53
2019-01-03T11:39:06.430Z,8.30
2019-01-03T11:41:32.206Z,11.13
2019-01-03T11:43:57.958Z,9.33
2019-01-03T11:46:23.729Z,15.50
2019-01-03T11:48:49.477Z,10.30
2019-01-03T11:51:15.247Z,12.27
2019-01-03T11:53:41.008Z,14.80
2019-01-03T11:56:06.773Z,23.10
2019-01-03T11:58:32.542Z,13.07
2019-01-03T12:00:58.305Z,15.30
2019-01-03T12:03:24.059Z,13.60
2019-01-03T12:05:49.829Z,14.70
2019-01-03T12:08:15.579Z,13.60
2019-01-03T12:10:41.360Z,11.60
2019-01-03T12:13:07.125Z,13.53
2019-01-03T12:15:32.886Z,15.73
2019-01-03T12:17:58.662Z,9.73
2019-01-03T12:20:24.429Z,15.97
2019-01-03T12:22:50.198Z,14.93
2019-01-03T12:25:15.949Z,13.87
2019-01-03T12:27:41.722Z,23.33
2019-01-03T12:30:49.191Z,10.83
2019-01-03T12:33:14.956Z,9.53
2019-01-03T12:35:40.748Z,9.27
2019-01-03T12:38:06.478Z,6.30
2019-01-03T12:40:32.232Z,10.33
2019-01-03T12:42:58.001Z,10.73
2019-01-03T12:45:23.765Z,10.87
2019-01-03T12:47:49.519Z,11.07
2019-01-03T12:50:15.274Z,12.17
2019-01-03T12:52:41.096Z,7.73
2019-01-03T12:55:06.800Z,9.60
2019-01-03T12:57:32.567Z,10.20
2019-01-03T12:59:58.341Z,9.83
2019-01-03T13:02:24.101Z,7.97
2019-01-03T13:04:49.854Z,11.37
2019-01-03T13:07:15.621Z,13.53
2019-01-03T13:09:41.398Z,10.37
2019-01-03T13:12:07.159Z,14.23
2019-01-03T13:14:32.905Z,8.40
2019-01-03T13:16:58.749Z,8.33
2019-01-03T13:19:24.497Z,10.27
2019-01-03T13:21:50.256Z,12.20
2019-01-03T13:24:16.008Z,11.33
2019-01-03T13:26:41.765Z,11.57
2019-01-03T13:29:07.532Z,12.73
2019-01-03T13:31:33.291Z,14.00
2019-01-03T13:33:59.053Z,15.83
2019-01-03T13:36:24.805Z,14.13
2019-01-03T13:38:50.578Z,15.83
2019-01-03T13:41:16.331Z,14.10
2019-01-03T13:43:42.102Z,17.00
2019-01-03T13:46:07.862Z,15.70
2019-01-03T13:48:33.625Z,9.90
2019-01-03T13:50:59.434Z,10.33
2019-01-03T13:53:25.196Z,9.27
2019-01-03T13:55:50.951Z,10.53
2019-01-03T13:58:16.722Z,8.90
2019-01-03T14:00:42.520Z,8.97
2019-01-03T14:03:08.250Z,9.87
2019-01-03T14:05:34.014Z,10.87
2019-01-03T14:07:59.795Z,12.00
2019-01-03T14:10:25.564Z,9.40
2019-01-03T14:12:51.424Z,9.53
2019-01-03T14:15:17.185Z,10.63
2019-01-03T14:17:42.945Z,9.13
2019-01-03T14:23:22.107Z,17.57
2019-01-03T14:25:47.860Z,8.67
2019-01-03T14:28:13.631Z,11.33
2019-01-03T14:30:39.382Z,13.47
2019-01-03T14:33:05.143Z,12.07
2019-01-03T14:35:30.908Z,17.53
2019-01-03T14:37:56.662Z,13.57
2019-01-03T14:40:22.431Z,12.53
2019-01-03T14:42:48.178Z,14.03
2019-01-03T14:45:13.961Z,16.57
2019-01-03T14:50:46.901Z,9.68
2019-01-03T14:53:12.656Z,11.30
2019-01-03T14:55:38.437Z,9.77
2019-01-03T14:58:04.188Z,10.27
2019-01-03T15:00:29.963Z,9.73
2019-01-03T15:02:55.718Z,9.17
2019-01-03T15:05:21.484Z,10.07
2019-01-03T15:07:47.230Z,8.27
2019-01-03T15:10:13.004Z,8.23
2019-01-03T15:12:38.791Z,9.27
2019-01-03T15:15:46.286Z,13.83
2019-01-03T15:18:12.022Z,11.08
2019-01-03T15:20:37.789Z,12.67
2019-01-03T15:23:03.583Z,18.27
2019-01-03T15:25:29.306Z,18.17
2019-01-03T15:27:55.054Z,21.90
2019-01-03T15:30:20.821Z,25.33
2019-01-03T15:32:46.575Z,26.07
2019-01-03T15:35:12.328Z,29.93
2019-01-03T15:37:38.101Z,24.20
2019-01-03T15:40:45.552Z,20.83
2019-01-03T15:43:11.300Z,18.35
2019-01-03T15:45:37.065Z,19.57
2019-01-03T15:48:02.808Z,21.63
2019-01-03T15:50:28.569Z,20.13
2019-01-03T15:53:14.232Z,18.70
2019-01-03T15:55:40.051Z,17.00
2019-01-03T15:58:05.798Z,13.87
2019-01-03T16:00:31.549Z,15.10
2019-01-03T16:02:57.309Z,12.60
2019-01-03T16:05:23.070Z,17.20
2019-01-03T16:08:08.738Z,12.90
2019-01-03T16:10:34.504Z,11.65
2019-01-03T16:13:00.270Z,9.40
2019-01-03T16:15:26.015Z,11.23
2019-01-03T16:17:51.782Z,12.67
2019-01-03T16:20:17.530Z,11.47
2019-01-03T16:22:43.299Z,12.37
2019-01-03T16:25:09.050Z,13.30
2019-01-03T16:27:34.819Z,12.27
2019-01-03T16:30:00.570Z,11.20
2019-01-03T16:32:26.340Z,11.03
2019-01-03T16:34:52.094Z,7.60
2019-01-03T16:37:17.861Z,12.30
2019-01-03T16:39:43.614Z,10.03
2019-01-03T16:42:09.379Z,9.40
2019-01-03T16:44:35.125Z,11.13
2019-01-03T16:47:00.891Z,10.27
2019-01-03T16:49:26.647Z,10.33
2019-01-03T16:51:52.425Z,12.00
2019-01-03T16:54:18.175Z,10.17
2019-01-03T16:56:43.963Z,11.27
2019-01-03T16:59:09.710Z,13.03
2019-01-03T17:01:35.465Z,13.70
2019-01-03T17:04:01.226Z,11.90
2019-01-03T17:06:26.979Z,12.07
2019-01-03T17:08:52.760Z,12.23
2019-01-03T17:11:18.514Z,10.70
2019-01-03T17:13:44.279Z,13.00
2019-01-03T17:16:10.033Z,13.67
2019-01-03T17:18:35.847Z,15.47
2019-01-03T17:21:01.589Z,12.37
2019-01-03T17:23:27.367Z,11.47
2019-01-03T17:25:53.108Z,14.23
2019-01-03T17:28:18.908Z,11.20
2019-01-03T17:30:44.632Z,12.13
2019-01-03T17:33:10.393Z,12.03
2019-01-03T17:35:36.153Z,12.13
2019-01-03T17:38:01.911Z,10.97
2019-01-03T17:40:27.689Z,11.00
2019-01-03T17:42:53.431Z,15.63
2019-01-03T17:45:19.199Z,13.20
2019-01-03T17:47:44.952Z,12.13
2019-01-03T17:50:10.725Z,10.23
2019-01-03T17:52:36.484Z,10.13
2019-01-03T17:55:02.309Z,11.77
2019-01-03T17:57:28.107Z,11.23
2019-01-03T17:59:53.869Z,13.63
2019-01-03T18:02:19.626Z,12.37
2019-01-03T18:04:45.455Z,10.83
2019-01-03T18:07:11.158Z,17.20
2019-01-03T18:09:36.921Z,9.80
2019-01-03T18:12:02.687Z,12.13
2019-01-03T18:14:28.436Z,12.53
2019-01-03T18:16:54.206Z,14.50
2019-01-03T18:19:19.956Z,14.47
2019-01-03T18:21:45.718Z,12.20
2019-01-03T18:24:11.457Z,12.50
2019-01-03T18:26:37.231Z,12.27
2019-01-03T18:29:02.978Z,12.30
2019-01-03T18:31:28.751Z,13.50
2019-01-03T18:33:54.501Z,9.87
2019-01-03T18:36:20.261Z,11.90
2019-01-03T18:38:46.010Z,10.73
2019-01-03T18:41:11.774Z,6.93
2019-01-03T18:43:37.520Z,10.47
2019-01-03T18:46:03.284Z,11.40
2019-01-03T18:48:29.043Z,11.10
2019-01-03T18:50:54.810Z,9.57
2019-01-03T18:53:20.556Z,13.37
2019-01-03T18:55:46.356Z,10.37
2019-01-03T18:58:12.110Z,12.13
2019-01-03T19:00:37.856Z,12.57
2019-01-03T19:03:03.620Z,9.97
2019-01-03T19:05:29.373Z,13.40
2019-01-03T19:07:55.148Z,10.30
2019-01-03T19:10:20.913Z,8.93
2019-01-03T19:12:46.686Z,11.33
2019-01-03T19:15:12.434Z,10.47
2019-01-03T19:17:38.197Z,13.63
2019-01-03T19:20:23.827Z,16.63
2019-01-03T19:22:49.594Z,13.38
2019-01-03T19:25:15.342Z,11.03
2019-01-03T19:27:41.110Z,11.50
2019-01-03T19:30:48.548Z,11.73
2019-01-03T19:33:14.303Z,12.93
2019-01-03T19:35:40.058Z,9.20
2019-01-03T19:38:05.827Z,10.60
2019-01-03T19:40:31.581Z,12.47
2019-01-03T19:42:57.349Z,8.37
2019-01-03T19:45:23.104Z,12.50
2019-01-03T19:47:48.866Z,11.47
2019-01-03T19:50:56.295Z,14.23
2019-01-03T19:53:22.064Z,13.18
2019-01-03T19:55:47.809Z,11.30
2019-01-03T19:58:13.580Z,10.47
2019-01-03T20:00:39.330Z,8.87
2019-01-03T20:03:05.092Z,10.20
2019-01-03T20:05:30.850Z,8.47
2019-01-03T20:07:56.624Z,7.60
2019-01-03T20:10:22.426Z,9.70
2019-01-03T20:12:48.162Z,11.00
2019-01-03T20:15:13.923Z,9.20
2019-01-03T20:17:39.691Z,12.50
2019-01-03T20:20:52.805Z,10.53
2019-01-03T20:23:14.798Z,10.70
2019-01-03T20:25:40.546Z,12.20
2019-01-03T20:28:06.320Z,12.63
2019-01-03T20:30:32.062Z,12.17
2019-01-03T20:32:57.818Z,9.50
2019-01-03T20:35:23.562Z,10.40
2019-01-03T20:37:49.323Z,10.00
2019-01-03T20:40:15.091Z,9.63
2019-01-03T20:42:40.943Z,9.90
2019-01-03T20:45:26.588Z,11.97
2019-01-03T20:47:52.339Z,11.95
2019-01-03T20:50:18.201Z,17.63
2019-01-03T20:52:43.954Z,15.80
2019-01-03T20:55:09.749Z,20.33
2019-01-03T20:57:35.509Z,18.37
2019-01-03T21:00:01.383Z,18.30
2019-01-03T21:02:27.137Z,16.93
2019-01-03T21:04:52.896Z,16.33
2019-01-03T21:07:18.640Z,16.03
2019-01-03T21:09:44.417Z,23.67
2019-01-03T21:12:10.166Z,17.70
2019-01-03T21:14:35.951Z,12.60
2019-01-03T21:17:01.702Z,14.40
2019-01-03T21:19:27.452Z,12.00
2019-01-03T21:21:53.223Z,11.80
2019-01-03T21:24:19.001Z,10.70
2019-01-03T21:26:44.765Z,11.90
2019-01-03T21:29:10.516Z,11.30
2019-01-03T21:31:36.381Z,12.07
2019-01-03T21:34:02.134Z,9.87
2019-01-03T21:36:27.906Z,11.43
2019-01-03T21:38:53.660Z,10.73
2019-01-03T21:41:19.421Z,9.40
2019-01-03T21:43:45.167Z,11.43
2019-01-03T21:46:11.017Z,15.67
2019-01-03T21:48:36.776Z,12.50
2019-01-03T21:51:02.544Z,12.73
2019-01-03T21:53:28.294Z,13.63
2019-01-03T21:55:54.067Z,13.17
2019-01-03T21:58:19.821Z,11.13
2019-01-03T22:00:45.606Z,10.87
2019-01-03T22:03:12.157Z,9.03
2019-01-03T22:05:39.049Z,10.03
2019-01-03T22:08:04.809Z,10.77
2019-01-03T22:10:30.585Z,9.13
2019-01-03T22:12:56.464Z,8.57
2019-01-03T22:15:22.201Z,10.23
2019-01-03T22:17:47.970Z,7.97
2019-01-03T22:20:13.718Z,9.57
2019-01-03T22:22:46.255Z,8.18
2019-01-03T22:25:12.006Z,9.20
2019-01-03T22:27:37.774Z,7.50
2019-01-03T22:30:45.198Z,8.83
2019-01-03T22:33:10.970Z,7.33
2019-01-03T22:35:36.727Z,8.80
2019-01-03T22:38:02.494Z,8.37
2019-01-03T22:40:28.246Z,7.40
2019-01-03T22:42:54.016Z,9.43
2019-01-03T22:45:19.771Z,9.37
2019-01-03T22:47:45.542Z,11.70
2019-01-03T22:50:11.283Z,8.10
2019-01-03T22:52:37.045Z,9.97
2019-01-03T22:55:44.501Z,8.70
2019-01-03T22:58:10.261Z,6.78
2019-01-03T23:04:03.089Z,7.62
2019-01-03T23:06:28.848Z,7.17
2019-01-03T23:08:54.623Z,6.00
2019-01-03T23:11:20.378Z,6.10
2019-01-03T23:13:46.135Z,5.57
2019-01-03T23:16:11.892Z,7.17
2019-01-03T23:18:37.637Z,6.13
2019-01-03T23:21:03.407Z,5.57
2019-01-03T23:23:29.155Z,10.83
2019-01-03T23:28:28.315Z,6.70
2019-01-03T23:30:54.071Z,7.13
2019-01-03T23:33:19.822Z,6.57
2019-01-03T23:35:45.589Z,7.30
2019-01-03T23:38:11.341Z,6.63
2019-01-03T23:40:37.118Z,5.03
2019-01-03T23:43:03.042Z,6.63
2019-01-03T23:48:22.918Z,7.40
2019-01-03T23:50:48.703Z,8.97
2019-01-03T23:53:14.465Z,8.60
2019-01-03T23:55:40.342Z,7.20
2019-01-03T23:58:06.115Z,8.93
